Time;durP1;ratioP1;P1;durP2;ratioP2;P2;SDS_P1;SDS_P2;PMS_P1;PMS_P2;Temp;Humidity;BMP_temperature;BMP_pressure;BME280_temperature;BME280_humidity;BME280_pressure;Samples;Min_cycle;Max_cycle;Signal;HPM_P1;HPM_P2
2023/01/04 00:01:01;;;;;;;9.57;2.92;;;;;;;;;;5033272;28;20057;-63
2023/01/04 00:03:27;;;;;;;7.93;2.78;;;;;;;;;;5033045;28;20041;-63
2023/01/04 00:05:53;;;;;;;15.88;4.20;;;;;;;;;;5032688;28;20494;-63
2023/01/04 00:08:19;;;;;;;11.85;3.22;;;;;;;;;;5032909;28;20041;-63
2023/01/04 00:10:45;;;;;;;11.77;3.53;;;;;;;;;;5036615;28;20033;-63
2023/01/04 00:13:11;;;;;;;10.35;3.22;;;;;;;;;;5052306;28;20052;-63
2023/01/04 00:15:37;;;;;;;10.10;3.50;;;;;;;;;;5053018;28;20131;-63
2023/01/04 00:18:03;;;;;;;9.35;3.33;;;;;;;;;;5052712;28;20121;-63
2023/01/04 00:20:30;;;;;;;12.63;3.17;;;;;;;;;;5052019;28;20057;-63
2023/01/04 00:22:56;;;;;;;11.27;3.10;;;;;;;;;;5052431;28;20052;-63
2023/01/04 00:25:22;;;;;;;10.60;3.22;;;;;;;;;;5048782;28;20075;-63
2023/01/04 00:27:49;;;;;;;7.55;2.97;;;;;;;;;;5030719;28;20045;-63
2023/01/04 00:30:16;;;;;;;13.20;3.38;;;;;;;;;;5032608;28;20037;-63
2023/01/04 00:33:00;;;;;;;8.57;3.25;;;;;;;;;;5032058;28;20048;-63
2023/01/04 00:35:26;;;;;;;13.35;3.50;;;;;;;;;;5032072;28;20037;-63
2023/01/04 00:37:52;;;;;;;10.77;3.75;;;;;;;;;;5032427;28;20041;-63
2023/01/04 00:40:18;;;;;;;10.43;3.53;;;;;;;;;;5032592;28;20128;-63
2023/01/04 00:42:44;;;;;;;13.30;4.10;;;;;;;;;;5031768;28;20377;-63
2023/01/04 00:45:10;;;;;;;9.30;3.53;;;;;;;;;;5030890;28;20045;-63
2023/01/04 00:47:36;;;;;;;11.63;3.80;;;;;;;;;;5031743;28;20411;-63
2023/01/04 00:50:03;;;;;;;9.60;3.75;;;;;;;;;;5032170;28;20041;-63
2023/01/04 00:52:29;;;;;;;8.60;3.17;;;;;;;;;;5031734;28;20041;-63
2023/01/04 00:54:55;;;;;;;8.07;3.47;;;;;;;;;;5030556;28;20049;-63
2023/01/04 00:57:21;;;;;;;14.95;4.00;;;;;;;;;;5032013;28;20037;-63
2023/01/04 00:59:47;;;;;;;10.85;3.67;;;;;;;;;;5031775;28;20045;-63
2023/01/04 01:02:13;;;;;;;12.95;3.17;;;;;;;;;;5031576;28;20038;-63
2023/01/04 01:04:39;;;;;;;9.55;3.25;;;;;;;;;;5031771;28;20049;-63
2023/01/04 01:07:05;;;;;;;9.63;3.63;;;;;;;;;;5031638;28;20424;-63
2023/01/04 01:09:31;;;;;;;11.57;3.72;;;;;;;;;;5031567;28;20123;-63
2023/01/04 01:11:57;;;;;;;7.00;3.53;;;;;;;;;;5046568;28;20132;-63
2023/01/04 01:14:24;;;;;;;12.90;3.60;;;;;;;;;;5051202;28;20045;-63
2023/01/04 01:16:50;;;;;;;11.48;3.30;;;;;;;;;;5051582;28;20041;-63
2023/01/04 01:19:16;;;;;;;11.13;3.92;;;;;;;;;;5049755;28;20081;-63
2023/01/04 01:21:42;;;;;;;11.18;3.28;;;;;;;;;;5051241;28;20061;-62
2023/01/04 01:24:14;;;;;;;11.80;3.75;;;;;;;;;;5051052;28;20828;-63
2023/01/04 01:26:41;;;;;;;6.53;3.40;;;;;;;;;;5037283;28;20128;-63
2023/01/04 01:29:07;;;;;;;9.25;3.33;;;;;;;;;;5030689;28;20037;-63
2023/01/04 01:31:33;;;;;;;5.78;3.28;;;;;;;;;;5031576;28;20068;-63
2023/01/04 01:34:01;;;;;;;8.68;3.47;;;;;;;;;;5031084;28;20069;-63
2023/01/04 01:36:27;;;;;;;13.98;4.30;;;;;;;;;;5029879;28;20037;-63
2023/01/04 01:38:54;;;;;;;11.35;3.50;;;;;;;;;;5031286;28;20088;-63
2023/01/04 01:41:22;;;;;;;11.95;3.85;;;;;;;;;;5031389;28;20065;-63
2023/01/04 01:43:50;;;;;;;8.60;3.85;;;;;;;;;;5030728;28;20079;-63
2023/01/04 01:46:19;;;;;;;8.35;3.80;;;;;;;;;;5030916;28;20054;-63
2023/01/04 01:48:45;;;;;;;8.98;3.60;;;;;;;;;;5031191;28;20049;-63
2023/01/04 01:51:13;;;;;;;9.82;4.00;;;;;;;;;;5030584;28;20041;-63
2023/01/04 01:53:40;;;;;;;13.15;3.85;;;;;;;;;;5031134;28;20085;-63
2023/01/04 01:56:08;;;;;;;8.10;3.53;;;;;;;;;;5029811;28;20494;-63
2023/01/04 01:58:41;;;;;;;6.65;3.45;;;;;;;;;;5030691;28;20047;-63
2023/01/04 02:01:08;;;;;;;6.50;3.33;;;;;;;;;;5030411;28;20041;-63
2023/01/04 02:03:41;;;;;;;6.57;3.33;;;;;;;;;;5030806;28;20083;-63
2023/01/04 02:06:09;;;;;;;11.10;3.15;;;;;;;;;;5030507;28;20506;-63
2023/01/04 02:08:36;;;;;;;7.82;3.10;;;;;;;;;;5030656;28;20095;-63
2023/01/04 02:11:03;;;;;;;9.05;3.92;;;;;;;;;;5036119;28;20381;-63
2023/01/04 02:14:25;;;;;;;10.00;3.90;;;;;;;;;;5049815;28;20432;-63
2023/01/04 02:16:32;;;;;;;6.28;3.88;;;;;;;;;;5050151;28;20102;-63
2023/01/04 02:19:08;;;;;;;12.82;3.50;;;;;;;;;;5049983;28;20068;-63
2023/01/04 02:21:48;;;;;;;5.07;3.33;;;;;;;;;;5050475;28;20574;-63
2023/01/04 02:24:24;;;;;;;6.47;3.60;;;;;;;;;;5050743;28;20044;-63
2023/01/04 02:26:56;;;;;;;5.57;3.08;;;;;;;;;;5034233;28;20087;-63
2023/01/04 02:29:22;;;;;;;10.15;2.97;;;;;;;;;;5030296;28;20096;-63
2023/01/04 02:31:47;;;;;;;7.60;3.63;;;;;;;;;;5030390;28;20049;-63
2023/01/04 02:34:20;;;;;;;5.68;3.30;;;;;;;;;;5030130;28;20426;-63
2023/01/04 02:36:46;;;;;;;6.85;3.17;;;;;;;;;;5012593;28;20045;-63
2023/01/04 02:39:31;;;;;;;11.63;3.20;;;;;;;;;;5028958;28;20052;-63
2023/01/04 02:41:58;;;;;;;5.03;3.17;;;;;;;;;;5029957;28;20126;-63
2023/01/04 02:47:15;;;;;;;5.28;3.17;;;;;;;;;;5030383;28;20136;-63
2023/01/04 02:52:26;;;;;;;6.65;2.72;;;;;;;;;;5030209;28;20045;-63
2023/01/04 02:54:55;;;;;;;5.45;3.13;;;;;;;;;;5030368;28;20752;-63
2023/01/04 02:57:28;;;;;;;8.15;2.97;;;;;;;;;;5029876;28;20048;-63
2023/01/04 03:00:10;;;;;;;6.40;2.80;;;;;;;;;;5029001;28;20046;-63
2023/01/04 03:08:14;;;;;;;7.88;2.67;;;;;;;;;;5030156;28;20045;-63
2023/01/04 03:10:42;;;;;;;4.65;2.90;;;;;;;;;;5034576;28;20353;-63
2023/01/04 03:13:16;;;;;;;6.50;2.88;;;;;;;;;;5053798;28;20055;-63
2023/01/04 03:15:45;;;;;;;6.85;3.00;;;;;;;;;;5069275;28;20048;-63
2023/01/04 03:18:15;;;;;;;4.45;2.13;;;;;;;;;;5053265;28;20040;-63
2023/01/04 03:20:42;;;;;;;4.75;2.90;;;;;;;;;;5053445;28;20048;-63
2023/01/04 03:37:04;;;;;;;3.25;2.28;;;;;;;;;;5033610;28;20566;-63
2023/01/04 03:51:01;;;;;;;4.25;3.28;;;;;;;;;;5033493;28;20072;-63
2023/01/04 03:53:27;;;;;;;4.22;3.00;;;;;;;;;;5033384;28;20037;-63
2023/01/04 03:55:54;;;;;;;4.38;3.00;;;;;;;;;;5032921;28;20046;-63
2023/01/04 03:58:21;;;;;;;5.20;2.58;;;;;;;;;;5033200;28;20034;-63
2023/01/04 04:00:47;;;;;;;6.38;3.38;;;;;;;;;;5032980;28;20045;-63
2023/01/04 04:03:13;;;;;;;2.90;2.13;;;;;;;;;;5032597;28;20425;-63
2023/01/04 04:08:28;;;;;;;3.47;2.67;;;;;;;;;;5033174;28;20045;-63
2023/01/04 04:13:47;;;;;;;4.72;2.75;;;;;;;;;;5052676;28;20049;-63
2023/01/04 04:16:13;;;;;;;3.03;2.70;;;;;;;;;;5052747;28;20498;-63
2023/01/04 04:18:39;;;;;;;5.75;3.40;;;;;;;;;;5052437;28;20053;-63
2023/01/04 04:21:05;;;;;;;6.38;3.30;;;;;;;;;;5052527;28;20176;-63
2023/01/04 04:23:31;;;;;;;4.68;3.35;;;;;;;;;;5051875;28;20099;-63
2023/01/04 04:25:57;;;;;;;5.05;3.15;;;;;;;;;;5043538;28;20100;-63
2023/01/04 04:28:23;;;;;;;6.32;2.90;;;;;;;;;;5032966;28;20033;-63
2023/01/04 04:30:50;;;;;;;3.85;3.33;;;;;;;;;;5032121;28;20052;-63
2023/01/04 04:33:16;;;;;;;6.32;3.67;;;;;;;;;;5032229;28;20045;-63
2023/01/04 04:35:42;;;;;;;5.47;3.92;;;;;;;;;;5032418;28;20044;-63
2023/01/04 04:38:08;;;;;;;6.35;3.28;;;;;;;;;;5032718;28;20092;-63
2023/01/04 04:43:19;;;;;;;8.52;4.60;;;;;;;;;;5032416;28;20041;-63
2023/01/04 04:45:45;;;;;;;5.05;3.47;;;;;;;;;;5031130;28;20485;-63
2023/01/04 04:48:11;;;;;;;13.60;4.68;;;;;;;;;;5031959;28;20037;-63
2023/01/04 04:50:37;;;;;;;7.47;4.57;;;;;;;;;;5032332;28;20037;-63
2023/01/04 04:53:03;;;;;;;7.88;4.22;;;;;;;;;;5032240;28;20080;-63
2023/01/04 04:55:29;;;;;;;8.52;4.70;;;;;;;;;;5031465;28;20045;-63
2023/01/04 04:57:55;;;;;;;6.97;4.95;;;;;;;;;;5030753;28;20044;-63
2023/01/04 05:00:21;;;;;;;7.93;5.57;;;;;;;;;;5032063;28;20033;-63
2023/01/04 05:02:47;;;;;;;5.93;4.82;;;;;;;;;;5031752;28;20609;-63
2023/01/04 05:05:14;;;;;;;8.90;5.63;;;;;;;;;;5031864;28;20129;-63
2023/01/04 05:07:40;;;;;;;9.93;5.20;;;;;;;;;;5031857;28;20046;-63
2023/01/04 05:10:06;;;;;;;8.55;4.97;;;;;;;;;;5031391;28;20042;-63
2023/01/04 05:15:17;;;;;;;7.18;5.30;;;;;;;;;;5051663;28;20040;-64
2023/01/04 05:17:43;;;;;;;10.57;6.07;;;;;;;;;;5051402;28;20507;-64
2023/01/04 05:20:09;;;;;;;9.65;5.72;;;;;;;;;;5051268;28;20063;-64
2023/01/04 05:22:35;;;;;;;8.07;6.10;;;;;;;;;;5051487;28;20033;-64
2023/01/04 05:25:01;;;;;;;9.77;6.90;;;;;;;;;;5049045;28;20045;-64
2023/01/04 05:27:27;;;;;;;11.45;7.45;;;;;;;;;;5031264;28;20069;-64
2023/01/04 05:32:38;;;;;;;12.60;8.15;;;;;;;;;;5031239;28;20045;-64
2023/01/04 05:35:04;;;;;;;9.93;7.13;;;;;;;;;;5029548;28;20120;-64
2023/01/04 05:37:30;;;;;;;12.20;7.63;;;;;;;;;;5031317;28;20041;-64
2023/01/04 05:39:56;;;;;;;12.93;8.02;;;;;;;;;;5031173;28;20084;-64
2023/01/04 05:42:26;;;;;;;12.25;7.43;;;;;;;;;;5031382;28;20116;-64
2023/01/04 05:44:53;;;;;;;17.90;8.60;;;;;;;;;;5031545;28;20041;-64
2023/01/04 05:47:19;;;;;;;17.52;9.07;;;;;;;;;;5030878;28;20049;-64
2023/01/04 05:49:45;;;;;;;14.38;8.80;;;;;;;;;;5031332;28;20045;-64
2023/01/04 05:52:11;;;;;;;13.20;8.00;;;;;;;;;;5030871;28;20365;-64
2023/01/04 05:54:37;;;;;;;14.65;7.50;;;;;;;;;;5029784;28;20472;-64
2023/01/04 05:57:03;;;;;;;15.30;8.40;;;;;;;;;;5013170;28;20094;-64
2023/01/04 05:59:29;;;;;;;12.38;7.95;;;;;;;;;;5031361;28;20069;-63
2023/01/04 06:01:55;;;;;;;15.68;7.63;;;;;;;;;;5030480;28;20072;-63
2023/01/04 06:04:21;;;;;;;13.55;7.57;;;;;;;;;;5031409;28;20034;-63
2023/01/04 06:06:47;;;;;;;12.98;7.80;;;;;;;;;;5030790;28;20037;-63
2023/01/04 06:09:13;;;;;;;13.35;7.80;;;;;;;;;;5030698;28;20056;-64
2023/01/04 06:11:39;;;;;;;15.50;6.57;;;;;;;;;;5042789;28;20124;-64
2023/01/04 06:14:05;;;;;;;12.35;6.35;;;;;;;;;;5026450;28;20045;-64
2023/01/04 06:16:31;;;;;;;7.82;5.57;;;;;;;;;;5028931;28;20048;-64
2023/01/04 06:18:57;;;;;;;13.23;7.00;;;;;;;;;;5029966;28;20051;-64
2023/01/04 06:21:26;;;;;;;14.50;6.45;;;;;;;;;;5030184;28;20124;-64
2023/01/04 06:23:53;;;;;;;10.27;5.43;;;;;;;;;;5030030;28;20064;-64
2023/01/04 06:26:19;;;;;;;12.93;5.60;;;;;;;;;;5029596;28;20055;-64
2023/01/04 06:28:45;;;;;;;11.48;6.05;;;;;;;;;;5030181;28;20512;-64
2023/01/04 06:31:11;;;;;;;10.60;6.43;;;;;;;;;;5029852;28;20037;-64
2023/01/04 06:33:37;;;;;;;10.90;5.65;;;;;;;;;;5030132;28;20099;-64
2023/01/04 06:36:04;;;;;;;10.52;4.95;;;;;;;;;;5030095;28;20045;-64
2023/01/04 06:38:30;;;;;;;6.03;4.63;;;;;;;;;;5020678;28;20038;-64
2023/01/04 06:40:56;;;;;;;9.27;4.40;;;;;;;;;;5010912;28;20037;-65
2023/01/04 06:43:22;;;;;;;7.97;4.40;;;;;;;;;;5009850;28;20042;-64
2023/01/04 06:45:49;;;;;;;8.02;4.28;;;;;;;;;;5012173;28;20049;-65
2023/01/04 06:48:15;;;;;;;6.80;3.42;;;;;;;;;;5034033;28;20056;-65
2023/01/04 06:50:41;;;;;;;7.78;3.70;;;;;;;;;;5023093;28;20423;-65
2023/01/04 06:53:07;;;;;;;6.28;3.63;;;;;;;;;;5013779;28;20878;-65
2023/01/04 06:55:33;;;;;;;4.10;3.53;;;;;;;;;;5012787;28;20077;-65
2023/01/04 06:57:59;;;;;;;5.28;3.47;;;;;;;;;;5017789;28;20038;-65
2023/01/04 07:00:26;;;;;;;7.13;3.13;;;;;;;;;;5033322;28;20044;-64
2023/01/04 07:02:52;;;;;;;5.22;3.08;;;;;;;;;;5023448;28;20071;-65
2023/01/04 07:05:18;;;;;;;5.05;2.92;;;;;;;;;;5012679;28;20053;-64
2023/01/04 07:07:44;;;;;;;3.20;2.67;;;;;;;;;;5013494;28;20053;-64
2023/01/04 07:10:10;;;;;;;5.03;3.47;;;;;;;;;;5027030;28;20395;-65
2023/01/04 07:12:38;;;;;;;5.07;3.33;;;;;;;;;;5033336;28;20045;-65
2023/01/04 07:15:04;;;;;;;5.60;3.30;;;;;;;;;;5021398;28;20540;-65
2023/01/04 07:17:30;;;;;;;4.63;3.40;;;;;;;;;;5012390;28;20057;-65
2023/01/04 07:19:56;;;;;;;5.18;2.95;;;;;;;;;;5012098;28;20054;-64
2023/01/04 07:22:22;;;;;;;5.68;3.70;;;;;;;;;;5016825;28;20049;-65
2023/01/04 07:24:48;;;;;;;4.57;3.42;;;;;;;;;;5033714;28;20115;-65
2023/01/04 07:27:14;;;;;;;5.03;3.65;;;;;;;;;;5019379;28;20042;-65
2023/01/04 07:29:43;;;;;;;6.32;4.10;;;;;;;;;;5012000;28;20100;-66
2023/01/04 07:32:09;;;;;;;6.28;3.92;;;;;;;;;;5011461;28;20073;-65
2023/01/04 07:34:36;;;;;;;5.68;3.25;;;;;;;;;;5027463;28;20049;-65
2023/01/04 07:37:02;;;;;;;6.20;3.50;;;;;;;;;;5032385;28;20041;-64
2023/01/04 07:39:28;;;;;;;4.90;3.65;;;;;;;;;;5000237;28;20049;-66
2023/01/04 07:41:54;;;;;;;4.93;3.20;;;;;;;;;;5012305;28;20042;-65
2023/01/04 07:44:20;;;;;;;5.82;3.15;;;;;;;;;;5031294;28;20058;-66
2023/01/04 07:46:46;;;;;;;5.88;3.40;;;;;;;;;;5030860;28;20037;-66
2023/01/04 07:49:14;;;;;;;5.63;3.47;;;;;;;;;;5032640;28;20476;-66
2023/01/04 07:51:40;;;;;;;7.40;3.72;;;;;;;;;;5016059;28;20042;-66
2023/01/04 07:54:06;;;;;;;4.80;3.67;;;;;;;;;;5021296;28;20384;-65
2023/01/04 07:56:32;;;;;;;6.32;3.28;;;;;;;;;;5030469;28;20050;-66
2023/01/04 07:58:58;;;;;;;7.10;4.05;;;;;;;;;;5032685;28;20044;-66
2023/01/04 08:01:25;;;;;;;6.25;3.88;;;;;;;;;;5033464;28;20038;-64
2023/01/04 08:03:52;;;;;;;9.00;4.20;;;;;;;;;;5030901;28;20032;-66
2023/01/04 08:06:19;;;;;;;7.95;4.53;;;;;;;;;;5028503;28;20192;-68
2023/01/04 08:08:45;;;;;;;8.05;4.90;;;;;;;;;;5029919;28;20048;-68
2023/01/04 08:11:13;;;;;;;8.38;4.88;;;;;;;;;;5038645;28;20123;-69
2023/01/04 08:13:39;;;;;;;6.75;4.43;;;;;;;;;;5042384;28;20053;-70
2023/01/04 08:16:06;;;;;;;9.18;5.05;;;;;;;;;;5023078;28;20361;-69
2023/01/04 08:18:32;;;;;;;11.00;5.45;;;;;;;;;;5030455;28;20041;-59
2023/01/04 08:21:05;;;;;;;8.18;5.07;;;;;;;;;;5030656;28;20084;-60
2023/01/04 08:23:32;;;;;;;10.07;5.75;;;;;;;;;;5028916;28;20034;-59
2023/01/04 08:26:05;;;;;;;9.95;6.07;;;;;;;;;;5029604;28;20053;-60
2023/01/04 08:28:31;;;;;;;11.45;6.05;;;;;;;;;;5024593;28;20045;-58
2023/01/04 08:30:57;;;;;;;9.60;5.65;;;;;;;;;;5024954;28;20131;-57
2023/01/04 08:33:24;;;;;;;9.82;5.05;;;;;;;;;;5027039;28;20040;-58
2023/01/04 08:35:50;;;;;;;12.25;6.03;;;;;;;;;;5026802;28;20184;-60
2023/01/04 08:38:16;;;;;;;12.10;5.97;;;;;;;;;;5027255;28;20180;-60
2023/01/04 08:40:42;;;;;;;11.60;6.60;;;;;;;;;;5030925;28;20044;-60
2023/01/04 08:43:08;;;;;;;9.80;6.15;;;;;;;;;;5012702;28;20100;-60
2023/01/04 08:45:34;;;;;;;9.98;5.90;;;;;;;;;;5023380;28;20033;-60
2023/01/04 08:48:00;;;;;;;10.70;5.45;;;;;;;;;;5024983;28;20051;-58
2023/01/04 08:50:26;;;;;;;6.68;4.68;;;;;;;;;;5028044;28;20727;-59
2023/01/04 08:52:52;;;;;;;9.70;5.07;;;;;;;;;;5029688;28;20041;-60
2023/01/04 08:55:18;;;;;;;7.43;4.78;;;;;;;;;;5028105;28;20050;-58
2023/01/04 08:57:44;;;;;;;7.57;4.15;;;;;;;;;;5028995;28;20040;-60
2023/01/04 09:00:10;;;;;;;6.97;4.25;;;;;;;;;;5030474;28;20042;-59
2023/01/04 09:02:36;;;;;;;7.95;3.97;;;;;;;;;;5024781;28;20065;-59
2023/01/04 09:05:02;;;;;;;6.80;4.05;;;;;;;;;;5030912;28;20069;-58
2023/01/04 09:07:29;;;;;;;5.18;3.70;;;;;;;;;;5032857;28;20607;-58
2023/01/04 09:09:56;;;;;;;5.40;3.35;;;;;;;;;;5038344;28;20057;-58
2023/01/04 09:12:22;;;;;;;7.88;3.75;;;;;;;;;;5048339;28;20521;-58
2023/01/04 09:14:48;;;;;;;5.03;3.70;;;;;;;;;;5027048;28;20045;-59
2023/01/04 09:17:14;;;;;;;6.63;3.95;;;;;;;;;;5021626;28;20049;-60
2023/01/04 09:19:40;;;;;;;9.40;4.47;;;;;;;;;;5031152;28;20076;-59
2023/01/04 09:22:06;;;;;;;5.20;3.28;;;;;;;;;;5026053;28;20049;-60
2023/01/04 09:24:33;;;;;;;7.22;3.30;;;;;;;;;;5027700;28;20705;-59
2023/01/04 09:26:59;;;;;;;4.40;3.13;;;;;;;;;;5026562;28;20039;-60
2023/01/04 09:29:26;;;;;;;5.55;3.35;;;;;;;;;;5029677;28;20623;-57
2023/01/04 09:31:52;;;;;;;4.65;2.95;;;;;;;;;;5036919;28;20051;-59
2023/01/04 09:34:18;;;;;;;5.88;2.78;;;;;;;;;;5025974;28;20045;-59
2023/01/04 09:36:45;;;;;;;3.30;2.42;;;;;;;;;;5027342;28;20044;-59
2023/01/04 09:39:11;;;;;;;3.85;2.65;;;;;;;;;;5027932;28;20040;-60
2023/01/04 09:41:42;;;;;;;3.30;2.15;;;;;;;;;;5027376;28;20042;-60
2023/01/04 09:44:08;;;;;;;5.65;3.10;;;;;;;;;;5027335;28;21029;-60
2023/01/04 09:46:40;;;;;;;4.88;2.75;;;;;;;;;;5024609;28;20041;-59
2023/01/04 09:49:17;;;;;;;4.68;2.63;;;;;;;;;;5023547;28;20523;-60
2023/01/04 09:51:48;;;;;;;4.57;2.38;;;;;;;;;;5024312;28;20041;-60
2023/01/04 09:54:19;;;;;;;3.78;2.28;;;;;;;;;;5025841;28;20045;-59
2023/01/04 09:56:50;;;;;;;2.40;2.13;;;;;;;;;;5019734;28;20045;-59
2023/01/04 09:59:17;;;;;;;2.63;1.90;;;;;;;;;;5023157;28;20034;-59
2023/01/04 10:01:59;;;;;;;3.33;2.33;;;;;;;;;;5024913;28;20045;-59
2023/01/04 10:04:28;;;;;;;3.27;1.93;;;;;;;;;;5022462;28;20030;-59
2023/01/04 10:06:55;;;;;;;2.83;1.65;;;;;;;;;;5021997;28;20298;-58
2023/01/04 10:09:21;;;;;;;2.70;1.70;;;;;;;;;;5022587;28;20517;-59
2023/01/04 10:11:47;;;;;;;4.55;1.98;;;;;;;;;;5027474;28;20048;-59
2023/01/04 10:14:13;;;;;;;2.22;1.75;;;;;;;;;;5024256;28;20037;-60
2023/01/04 10:16:39;;;;;;;7.72;2.38;;;;;;;;;;5025443;28;20391;-60
2023/01/04 10:19:20;;;;;;;8.70;2.47;;;;;;;;;;5024834;28;20038;-59
2023/01/04 10:21:49;;;;;;;9.15;2.63;;;;;;;;;;5022155;28;20056;-59
2023/01/04 10:24:24;;;;;;;15.93;2.80;;;;;;;;;;5030612;28;20033;-60
2023/01/04 10:26:59;;;;;;;11.02;2.67;;;;;;;;;;5026805;28;20048;-60
2023/01/04 10:29:25;;;;;;;10.30;2.78;;;;;;;;;;5020079;28;20509;-62
2023/01/04 10:31:59;;;;;;;10.45;3.00;;;;;;;;;;5018467;28;20419;-61
2023/01/04 10:34:27;;;;;;;15.95;3.17;;;;;;;;;;5021376;28;20376;-60
2023/01/04 10:36:56;;;;;;;14.95;3.42;;;;;;;;;;5027100;28;20045;-62
2023/01/04 10:39:24;;;;;;;15.00;3.47;;;;;;;;;;5017388;28;20084;-64
2023/01/04 10:41:55;;;;;;;15.70;3.38;;;;;;;;;;5022970;28;20041;-63
2023/01/04 10:44:38;;;;;;;19.67;3.45;;;;;;;;;;5022478;28;20025;-63
2023/01/04 10:47:10;;;;;;;18.02;3.55;;;;;;;;;;5025669;28;20045;-63
2023/01/04 10:49:48;;;;;;;25.58;3.88;;;;;;;;;;5027212;28;20069;-63
2023/01/04 10:52:25;;;;;;;17.95;3.20;;;;;;;;;;5022867;28;20041;-63
2023/01/04 10:54:54;;;;;;;23.55;4.13;;;;;;;;;;5023887;28;20459;-62
2023/01/04 10:57:43;;;;;;;22.52;4.15;;;;;;;;;;5021712;28;20052;-62
2023/01/04 11:00:13;;;;;;;26.92;4.15;;;;;;;;;;5018418;28;20136;-62
2023/01/04 11:02:50;;;;;;;19.00;3.95;;;;;;;;;;5018718;28;20038;-62
2023/01/04 11:05:16;;;;;;;28.90;3.88;;;;;;;;;;5026831;28;20034;-62
2023/01/04 11:07:51;;;;;;;23.92;4.20;;;;;;;;;;5019859;28;20642;-63
2023/01/04 11:10:23;;;;;;;24.75;3.45;;;;;;;;;;5022602;28;20334;-63
2023/01/04 11:12:49;;;;;;;22.85;4.05;;;;;;;;;;5025189;28;20116;-62
2023/01/04 11:15:15;;;;;;;24.65;4.05;;;;;;;;;;5025467;28;20033;-62
2023/01/04 11:17:42;;;;;;;25.88;4.07;;;;;;;;;;5018769;28;20037;-63
2023/01/04 11:20:09;;;;;;;20.85;3.53;;;;;;;;;;5021717;28;20060;-63
2023/01/04 11:22:35;;;;;;;27.70;4.50;;;;;;;;;;5027169;28;20092;-63
2023/01/04 11:25:02;;;;;;;20.77;3.67;;;;;;;;;;5025681;28;20041;-63
2023/01/04 11:27:30;;;;;;;28.20;4.07;;;;;;;;;;5023270;28;20052;-62
2023/01/04 11:30:02;;;;;;;20.20;3.45;;;;;;;;;;5028028;28;20045;-63
2023/01/04 11:32:51;;;;;;;24.92;3.75;;;;;;;;;;5024410;28;20045;-63
2023/01/04 11:35:36;;;;;;;23.90;3.88;;;;;;;;;;5024112;28;20619;-62
2023/01/04 11:38:09;;;;;;;17.92;3.45;;;;;;;;;;5030019;28;20125;-64
2023/01/04 11:40:35;;;;;;;26.30;3.50;;;;;;;;;;5031996;28;20049;-64
2023/01/04 11:43:10;;;;;;;17.98;3.58;;;;;;;;;;5027208;28;20033;-63
2023/01/04 11:45:36;;;;;;;26.98;3.50;;;;;;;;;;5034969;28;20037;-63
2023/01/04 11:48:05;;;;;;;23.30;3.92;;;;;;;;;;5030785;28;20041;-63
2023/01/04 11:50:36;;;;;;;25.05;3.45;;;;;;;;;;5029924;28;21569;-64
2023/01/04 11:53:06;;;;;;;20.55;3.40;;;;;;;;;;5013112;28;20508;-63
2023/01/04 11:55:32;;;;;;;16.40;2.53;;;;;;;;;;5021065;28;20041;-63
2023/01/04 11:58:11;;;;;;;18.33;2.90;;;;;;;;;;5024417;28;20496;-62
2023/01/04 12:00:38;;;;;;;21.75;3.83;;;;;;;;;;5028517;28;20037;-63
2023/01/04 12:03:14;;;;;;;18.85;2.72;;;;;;;;;;5015201;28;20637;-63
2023/01/04 12:05:41;;;;;;;20.77;3.17;;;;;;;;;;5031273;28;20041;-63
2023/01/04 12:08:12;;;;;;;18.00;2.30;;;;;;;;;;5028063;28;20376;-63
2023/01/04 12:10:38;;;;;;;14.90;2.30;;;;;;;;;;5029276;28;20052;-63
2023/01/04 12:13:08;;;;;;;12.48;2.88;;;;;;;;;;5027930;28;20574;-63
2023/01/04 12:15:54;;;;;;;12.88;2.25;;;;;;;;;;5023718;28;20072;-63
2023/01/04 12:18:24;;;;;;;9.00;2.08;;;;;;;;;;5021702;28;20554;-65
2023/01/04 12:20:51;;;;;;;10.02;1.70;;;;;;;;;;5030372;28;20057;-64
2023/01/04 12:23:17;;;;;;;3.38;0.95;;;;;;;;;;5030438;28;20155;-63
2023/01/04 12:25:50;;;;;;;6.32;1.40;;;;;;;;;;5031513;28;20045;-63
2023/01/04 12:28:29;;;;;;;4.22;1.20;;;;;;;;;;5026414;28;20056;-63
2023/01/04 12:30:55;;;;;;;7.05;1.30;;;;;;;;;;5030387;28;20081;-62
2023/01/04 12:33:41;;;;;;;5.70;1.02;;;;;;;;;;5020648;28;20042;-62
2023/01/04 12:36:09;;;;;;;4.97;0.98;;;;;;;;;;5029412;28;20136;-62
2023/01/04 12:38:47;;;;;;;6.60;1.30;;;;;;;;;;5030506;28;20714;-61
2023/01/04 12:41:13;;;;;;;4.90;0.80;;;;;;;;;;5027503;28;20041;-62
2023/01/04 12:43:39;;;;;;;3.60;0.90;;;;;;;;;;5025713;28;20081;-62
2023/01/04 12:49:27;;;;;;;5.32;1.15;;;;;;;;;;5028753;28;20431;-62
2023/01/04 12:52:05;;;;;;;11.07;1.77;;;;;;;;;;5028395;28;20038;-62
2023/01/04 12:54:43;;;;;;;9.80;1.73;;;;;;;;;;5028212;28;20048;-62
2023/01/04 12:57:10;;;;;;;5.50;1.50;;;;;;;;;;5027980;28;20046;-60
2023/01/04 12:59:37;;;;;;;15.07;2.38;;;;;;;;;;5028415;28;20034;-62
2023/01/04 13:02:15;;;;;;;13.88;2.58;;;;;;;;;;5030133;28;20544;-62
2023/01/04 13:04:41;;;;;;;16.13;2.70;;;;;;;;;;5030206;28;20041;-63
2023/01/04 13:07:19;;;;;;;9.82;1.70;;;;;;;;;;5028758;28;20132;-63
2023/01/04 13:09:57;;;;;;;16.20;2.72;;;;;;;;;;5023365;28;20068;-65
2023/01/04 13:12:23;;;;;;;15.90;3.13;;;;;;;;;;5026281;28;20076;-64
2023/01/04 13:14:51;;;;;;;16.02;2.67;;;;;;;;;;5027065;28;20045;-64
2023/01/04 13:17:21;;;;;;;14.80;2.70;;;;;;;;;;5023370;28;20046;-64
2023/01/04 13:19:48;;;;;;;19.05;3.05;;;;;;;;;;5023891;28;20868;-65
2023/01/04 13:22:19;;;;;;;17.33;2.97;;;;;;;;;;5024164;28;20034;-64
2023/01/04 13:24:47;;;;;;;14.82;2.75;;;;;;;;;;5023567;28;20045;-64
2023/01/04 13:27:18;;;;;;;19.75;3.00;;;;;;;;;;5028883;28;20077;-63
2023/01/04 13:29:44;;;;;;;15.93;3.10;;;;;;;;;;5030085;28;20046;-65
2023/01/04 13:32:20;;;;;;;15.63;2.65;;;;;;;;;;5026006;28;20183;-63
2023/01/04 13:34:51;;;;;;;18.17;3.45;;;;;;;;;;5028332;28;20053;-65
2023/01/04 13:37:25;;;;;;;17.80;2.90;;;;;;;;;;5030283;28;20050;-65
2023/01/04 13:39:59;;;;;;;20.38;3.05;;;;;;;;;;5024800;28;20109;-63
2023/01/04 13:42:32;;;;;;;18.23;3.13;;;;;;;;;;5024116;28;20087;-63
2023/01/04 13:45:07;;;;;;;22.65;3.88;;;;;;;;;;5025976;28;20103;-63
2023/01/04 13:47:35;;;;;;;19.58;3.20;;;;;;;;;;5026251;28;20079;-63
2023/01/04 13:50:01;;;;;;;18.63;3.22;;;;;;;;;;5022408;28;20484;-63
2023/01/04 13:52:28;;;;;;;23.45;3.38;;;;;;;;;;5026546;28;20092;-63
2023/01/04 13:55:14;;;;;;;20.17;3.42;;;;;;;;;;5027831;28;20095;-63
2023/01/04 13:57:51;;;;;;;22.85;4.03;;;;;;;;;;5020914;28;20050;-64
2023/01/04 14:00:17;;;;;;;20.67;3.20;;;;;;;;;;5029727;28;20034;-64
2023/01/04 14:02:43;;;;;;;20.63;3.40;;;;;;;;;;5026688;28;20383;-64
2023/01/04 14:05:18;;;;;;;15.32;2.92;;;;;;;;;;5030100;28;20120;-62
2023/01/04 14:07:44;;;;;;;21.92;3.25;;;;;;;;;;5028506;28;20095;-62
2023/01/04 14:10:17;;;;;;;17.95;3.13;;;;;;;;;;5025341;28;20041;-62
2023/01/04 14:12:43;;;;;;;;;;;;;;;;;;5024079;28;20041;-61
2023/01/04 14:15:14;;;;;;;17.48;3.58;;;;;;;;;;5029591;28;19932;-63
2023/01/04 14:17:54;;;;;;;24.60;3.47;;;;;;;;;;5028479;28;20059;-63
2023/01/04 14:20:21;;;;;;;17.42;3.67;;;;;;;;;;5028195;28;20053;-63
2023/01/04 14:22:47;;;;;;;20.70;3.85;;;;;;;;;;5026261;28;20045;-64
2023/01/04 14:25:32;;;;;;;24.17;3.55;;;;;;;;;;5028260;28;20112;-63
2023/01/04 14:28:17;;;;;;;19.52;3.88;;;;;;;;;;5024043;28;20049;-64
2023/01/04 14:30:44;;;;;;;16.52;3.40;;;;;;;;;;5024805;28;20048;-64
2023/01/04 14:33:13;;;;;;;16.77;3.38;;;;;;;;;;5027144;28;20135;-65
2023/01/04 14:35:39;;;;;;;20.90;4.05;;;;;;;;;;5024341;28;20096;-64
2023/01/04 14:38:10;;;;;;;18.70;3.55;;;;;;;;;;5026650;28;20029;-63
2023/01/04 14:40:36;;;;;;;18.65;3.92;;;;;;;;;;5029086;28;20418;-64
2023/01/04 14:43:03;;;;;;;18.52;3.47;;;;;;;;;;5018241;28;20034;-63
2023/01/04 14:45:28;;;;;;;27.00;3.72;;;;;;;;;;5028116;28;20446;-63
2023/01/04 14:47:55;;;;;;;24.52;3.67;;;;;;;;;;5030223;28;20038;-63
2023/01/04 14:50:21;;;;;;;14.65;2.85;;;;;;;;;;5028661;28;20049;-63
2023/01/04 14:52:50;;;;;;;22.77;3.38;;;;;;;;;;5027101;28;20034;-66
2023/01/04 14:55:17;;;;;;;26.60;4.45;;;;;;;;;;5028805;28;20033;-66
2023/01/04 14:57:44;;;;;;;16.13;2.75;;;;;;;;;;5028392;28;20053;-66
2023/01/04 15:00:16;;;;;;;21.05;3.08;;;;;;;;;;5029544;28;20124;-66
2023/01/04 15:02:44;;;;;;;18.30;3.17;;;;;;;;;;5027540;28;20038;-67
2023/01/04 15:05:10;;;;;;;23.45;3.30;;;;;;;;;;5027948;28;20045;-66
2023/01/04 15:07:39;;;;;;;21.75;3.10;;;;;;;;;;5030629;28;20033;-66
2023/01/04 15:10:06;;;;;;;19.73;2.92;;;;;;;;;;5032862;28;20090;-65
2023/01/04 15:12:32;;;;;;;19.58;3.20;;;;;;;;;;5020811;28;20128;-65
2023/01/04 15:14:58;;;;;;;15.50;3.13;;;;;;;;;;5015446;28;20087;-65
2023/01/04 15:17:24;;;;;;;18.55;3.20;;;;;;;;;;5031622;28;20503;-66
2023/01/04 15:19:50;;;;;;;24.73;3.33;;;;;;;;;;5031469;28;20132;-66
2023/01/04 15:22:16;;;;;;;16.90;3.20;;;;;;;;;;5031923;28;20084;-65
2023/01/04 15:24:42;;;;;;;22.45;3.47;;;;;;;;;;5031059;28;20033;-66
2023/01/04 15:27:08;;;;;;;17.10;3.03;;;;;;;;;;5031275;28;20507;-66
2023/01/04 15:29:34;;;;;;;22.42;3.33;;;;;;;;;;5033029;28;20129;-66
2023/01/04 15:32:00;;;;;;;18.98;2.90;;;;;;;;;;5024917;28;20072;-65
2023/01/04 15:34:26;;;;;;;18.38;3.00;;;;;;;;;;5012922;28;20042;-65
2023/01/04 15:36:52;;;;;;;24.63;3.47;;;;;;;;;;5029368;28;20373;-65